createdAt,value
2022-11-22T00:00:54.251Z,26.70
2022-11-22T00:03:21.036Z,28.65
2022-11-22T00:05:47.825Z,29.10
2022-11-22T00:08:14.707Z,30.23
2022-11-22T00:10:41.545Z,29.23
2022-11-22T00:13:08.621Z,30.42
2022-11-22T00:15:35.448Z,29.65
2022-11-22T00:18:02.244Z,30.50
2022-11-22T00:20:29.495Z,31.73
2022-11-22T00:22:58.165Z,31.55
2022-11-22T00:25:25.031Z,29.33
2022-11-22T00:27:51.827Z,29.08
2022-11-22T00:30:18.713Z,31.10
2022-11-22T00:32:45.539Z,33.90
2022-11-22T00:35:12.869Z,32.08
2022-11-22T00:37:39.662Z,30.52
2022-11-22T00:40:07.345Z,30.88
2022-11-22T00:42:34.227Z,30.73
2022-11-22T00:45:01.293Z,29.73
2022-11-22T00:47:28.104Z,29.75
2022-11-22T00:49:54.892Z,29.67
2022-11-22T00:52:21.717Z,30.13
2022-11-22T00:54:54.309Z,29.35
2022-11-22T00:57:21.547Z,31.90
2022-11-22T00:59:48.372Z,31.05
2022-11-22T01:02:15.238Z,31.08
2022-11-22T01:04:42.102Z,28.92
2022-11-22T01:07:09.943Z,30.50
2022-11-22T01:09:36.825Z,31.52
2022-11-22T01:12:04.005Z,29.67
2022-11-22T01:14:30.827Z,29.98
2022-11-22T01:16:57.637Z,31.58
2022-11-22T01:19:24.528Z,29.05
2022-11-22T01:21:51.412Z,28.50
2022-11-22T01:24:18.196Z,30.17
2022-11-22T01:26:45.046Z,28.98
2022-11-22T01:29:11.804Z,30.60
2022-11-22T01:31:38.572Z,27.98
2022-11-22T01:34:06.313Z,28.65
2022-11-22T01:36:33.233Z,28.58
2022-11-22T01:39:00.047Z,28.95
2022-11-22T01:41:26.889Z,29.73
2022-11-22T01:43:53.655Z,28.08
2022-11-22T01:46:31.605Z,31.75
2022-11-22T01:49:14.512Z,30.85
2022-11-22T01:51:44.752Z,29.23
2022-11-22T01:54:16.278Z,31.05
2022-11-22T01:56:46.728Z,29.02
2022-11-22T01:59:17.468Z,29.33
2022-11-22T02:01:44.464Z,27.30
2022-11-22T02:04:14.385Z,27.60
2022-11-22T02:07:15.065Z,28.55
2022-11-22T02:09:43.466Z,28.23
2022-11-22T02:12:12.077Z,31.48
2022-11-22T02:14:40.284Z,28.75
2022-11-22T02:17:07.086Z,29.40
2022-11-22T02:19:45.054Z,28.77
2022-11-22T02:23:00.947Z,26.60
2022-11-22T02:25:36.841Z,27.73
2022-11-22T02:28:08.881Z,26.65
2022-11-22T02:30:40.516Z,27.05
2022-11-22T02:33:08.213Z,28.15
2022-11-22T02:35:35.370Z,26.77
2022-11-22T02:38:13.203Z,25.90
2022-11-22T02:40:50.815Z,28.20
2022-11-22T02:43:22.128Z,27.70
2022-11-22T02:45:48.945Z,28.50
2022-11-22T02:48:17.887Z,28.10
2022-11-22T02:50:45.696Z,28.98
2022-11-22T02:53:13.416Z,27.42
2022-11-22T02:55:40.482Z,27.25
2022-11-22T02:58:07.365Z,27.10
2022-11-22T03:00:36.394Z,25.77
2022-11-22T03:03:03.371Z,25.23
2022-11-22T03:05:30.247Z,26.15
2022-11-22T03:07:57.009Z,25.98
2022-11-22T03:10:23.790Z,26.35
2022-11-22T03:12:50.676Z,26.98
2022-11-22T03:15:17.687Z,26.13
2022-11-22T03:17:44.520Z,24.80
2022-11-22T03:20:11.674Z,23.30
2022-11-22T03:22:38.444Z,25.45
2022-11-22T03:25:06.013Z,24.33
2022-11-22T03:27:32.872Z,25.60
2022-11-22T03:29:59.624Z,22.80
2022-11-22T03:32:26.383Z,25.92
2022-11-22T03:34:53.144Z,25.30
2022-11-22T03:37:20.039Z,24.27
2022-11-22T03:39:46.817Z,24.85
2022-11-22T03:42:18.134Z,26.33
2022-11-22T03:44:47.989Z,24.42
2022-11-22T03:47:14.810Z,26.00
2022-11-22T03:49:42.198Z,25.45
2022-11-22T03:52:09.199Z,24.40
2022-11-22T03:54:36.089Z,24.13
2022-11-22T03:57:02.896Z,26.05
2022-11-22T03:59:30.090Z,25.50
2022-11-22T04:01:57.177Z,24.35
2022-11-22T04:04:24.111Z,25.08
2022-11-22T04:06:51.016Z,24.25
2022-11-22T04:09:17.812Z,23.92
2022-11-22T04:11:44.617Z,24.23
2022-11-22T04:14:30.925Z,24.25
2022-11-22T04:16:58.025Z,25.00
2022-11-22T04:19:24.829Z,24.73
2022-11-22T04:21:51.602Z,26.13
2022-11-22T04:24:36.821Z,25.10
2022-11-22T04:27:03.656Z,25.08
2022-11-22T04:29:30.580Z,25.92
2022-11-22T04:32:15.877Z,25.42
2022-11-22T04:34:42.649Z,23.30
2022-11-22T04:37:09.514Z,25.75
2022-11-22T04:39:36.310Z,25.20
2022-11-22T04:42:21.974Z,25.13
2022-11-22T04:44:48.765Z,25.42
2022-11-22T04:47:37.779Z,24.70
2022-11-22T04:50:26.528Z,23.13
2022-11-22T04:52:55.371Z,22.42
2022-11-22T04:55:22.951Z,22.75
2022-11-22T04:57:52.074Z,22.02
2022-11-22T05:00:22.863Z,17.67
2022-11-22T05:02:49.625Z,23.67
2022-11-22T05:05:16.461Z,23.63
2022-11-22T05:07:43.247Z,22.52
2022-11-22T05:10:10.615Z,25.00
2022-11-22T05:12:37.424Z,24.50
2022-11-22T05:15:04.663Z,24.88
2022-11-22T05:17:31.427Z,24.48
2022-11-22T05:19:58.213Z,25.25
2022-11-22T05:22:46.261Z,23.90
2022-11-22T05:25:13.125Z,24.20
2022-11-22T05:27:39.927Z,23.48
2022-11-22T05:30:07.754Z,23.58
2022-11-22T05:32:34.560Z,23.38
2022-11-22T05:35:01.311Z,24.40
2022-11-22T05:37:29.063Z,23.00
2022-11-22T05:39:55.947Z,23.42
2022-11-22T05:42:22.821Z,21.95
2022-11-22T05:44:49.593Z,24.05
2022-11-22T05:47:16.375Z,22.58
2022-11-22T05:49:45.955Z,22.85
2022-11-22T05:52:13.082Z,24.05
2022-11-22T05:54:39.901Z,25.33
2022-11-22T05:57:07.148Z,26.25
2022-11-22T05:59:34.077Z,25.65
2022-11-22T06:02:01.011Z,25.17
2022-11-22T06:04:27.829Z,26.23
2022-11-22T06:06:54.581Z,23.83
2022-11-22T06:09:22.763Z,23.23
2022-11-22T06:11:49.539Z,24.95
2022-11-22T06:14:16.416Z,23.17
2022-11-22T06:16:43.299Z,25.55
2022-11-22T06:19:10.266Z,24.60
2022-11-22T06:21:37.067Z,24.00
2022-11-22T06:24:03.921Z,26.30
2022-11-22T06:26:33.519Z,26.52
2022-11-22T06:29:04.726Z,24.58
2022-11-22T06:31:31.579Z,24.20
2022-11-22T06:34:00.267Z,25.33
2022-11-22T06:36:33.203Z,24.48
2022-11-22T06:39:03.440Z,26.70
2022-11-22T06:41:36.749Z,25.50
2022-11-22T06:44:08.895Z,25.70
2022-11-22T06:46:37.150Z,27.50
2022-11-22T06:49:04.375Z,26.10
2022-11-22T06:51:32.497Z,27.75
2022-11-22T06:53:59.777Z,26.58
2022-11-22T06:56:33.031Z,27.00
2022-11-22T06:59:04.248Z,25.02
2022-11-22T07:01:32.841Z,26.13
2022-11-22T07:04:01.289Z,25.55
2022-11-22T07:06:34.933Z,25.80
2022-11-22T07:09:04.127Z,26.70
2022-11-22T07:11:32.414Z,27.42
2022-11-22T07:14:06.895Z,27.75
2022-11-22T07:16:36.709Z,24.98
2022-11-22T07:19:04.853Z,25.20
2022-11-22T07:21:32.494Z,25.10
2022-11-22T07:23:59.312Z,26.13
2022-11-22T07:26:27.311Z,25.95
2022-11-22T07:28:54.090Z,25.30
2022-11-22T07:31:21.227Z,24.65
2022-11-22T07:33:48.355Z,24.98
2022-11-22T07:36:19.246Z,25.85
2022-11-22T07:38:47.760Z,24.85
2022-11-22T07:41:15.893Z,26.92
2022-11-22T07:43:43.010Z,26.65
2022-11-22T07:46:30.962Z,24.35
2022-11-22T07:48:59.147Z,23.40
2022-11-22T07:51:26.240Z,24.60
2022-11-22T07:53:54.411Z,24.88
2022-11-22T07:56:21.275Z,24.20
2022-11-22T07:58:48.298Z,24.05
2022-11-22T08:01:18.446Z,24.20
2022-11-22T08:03:45.986Z,23.77
2022-11-22T08:06:14.645Z,22.67
2022-11-22T08:08:41.621Z,23.83
2022-11-22T08:11:09.137Z,23.05
2022-11-22T08:13:36.583Z,23.48
2022-11-22T08:16:11.390Z,23.95
2022-11-22T08:18:39.531Z,23.95
2022-11-22T08:21:14.317Z,23.10
2022-11-22T08:23:42.420Z,22.13
2022-11-22T08:26:12.505Z,22.85
2022-11-22T08:28:40.456Z,23.13
2022-11-22T08:31:12.316Z,22.67
2022-11-22T08:33:39.656Z,22.17
2022-11-22T08:36:06.905Z,22.27
2022-11-22T08:38:34.282Z,20.95
2022-11-22T08:41:01.092Z,21.50
2022-11-22T08:43:27.859Z,22.90
2022-11-22T08:45:57.251Z,20.23
2022-11-22T08:48:25.946Z,21.85
2022-11-22T08:51:00.850Z,21.08
2022-11-22T08:53:27.965Z,22.60
2022-11-22T08:55:55.366Z,22.38
2022-11-22T08:58:22.948Z,20.52
2022-11-22T09:00:49.972Z,20.67
2022-11-22T09:03:16.748Z,19.95
2022-11-22T09:08:35.900Z,19.70
2022-11-22T09:11:16.844Z,19.00
2022-11-22T09:13:44.498Z,19.45
2022-11-22T09:16:19.623Z,18.77
2022-11-22T09:18:48.173Z,18.25
2022-11-22T09:21:19.455Z,19.35
2022-11-22T09:23:48.574Z,19.50
2022-11-22T09:26:24.435Z,18.88
2022-11-22T09:28:53.233Z,18.95
2022-11-22T09:31:22.367Z,19.95
2022-11-22T09:33:50.266Z,18.63
2022-11-22T09:36:23.518Z,18.35
2022-11-22T09:38:52.194Z,13.57
2022-11-22T09:42:01.892Z,17.58
2022-11-22T09:44:40.502Z,17.35
2022-11-22T09:47:53.729Z,19.40
2022-11-22T09:50:39.435Z,17.50
2022-11-22T09:53:18.778Z,18.02
2022-11-22T09:55:55.539Z,18.25
2022-11-22T09:58:41.959Z,17.50
2022-11-22T10:01:32.992Z,17.40
2022-11-22T10:04:18.761Z,17.88
2022-11-22T10:07:20.625Z,17.75
2022-11-22T10:10:24.979Z,16.38
2022-11-22T10:13:35.931Z,13.35
2022-11-22T10:16:11.473Z,17.15
2022-11-22T10:18:50.049Z,17.95
2022-11-22T10:21:17.856Z,17.77
2022-11-22T10:23:46.850Z,17.00
2022-11-22T10:26:26.442Z,17.35
2022-11-22T10:29:02.858Z,17.30
2022-11-22T10:31:45.621Z,16.50
2022-11-22T10:34:44.880Z,16.50
2022-11-22T10:37:27.436Z,16.08
2022-11-22T10:40:46.567Z,14.85
2022-11-22T10:43:16.350Z,15.93
2022-11-22T10:46:19.132Z,15.48
2022-11-22T10:49:24.381Z,15.38
2022-11-22T10:55:35.178Z,13.68
2022-11-22T10:58:36.421Z,14.32
2022-11-22T11:01:34.598Z,14.20
2022-11-22T11:04:03.925Z,13.35
2022-11-22T11:07:10.404Z,13.82
2022-11-22T11:12:39.499Z,13.57
2022-11-22T11:15:18.274Z,13.55
2022-11-22T11:17:50.889Z,14.02
2022-11-22T11:20:27.840Z,14.15
2022-11-22T11:25:44.685Z,14.35
2022-11-22T11:28:24.455Z,15.63
2022-11-22T11:30:59.019Z,15.18
2022-11-22T11:33:37.628Z,14.07
2022-11-22T11:36:19.161Z,13.57
2022-11-22T11:38:46.040Z,13.13
2022-11-22T11:41:43.161Z,14.15
2022-11-22T11:44:33.836Z,12.43
2022-11-22T11:47:01.216Z,13.27
2022-11-22T11:49:37.705Z,13.57
2022-11-22T11:52:14.432Z,13.02
2022-11-22T11:54:52.535Z,13.35
2022-11-22T11:57:31.158Z,13.90
2022-11-22T12:00:05.716Z,11.85
2022-11-22T12:02:52.104Z,12.43
2022-11-22T12:05:19.172Z,12.35
2022-11-22T12:07:54.052Z,13.18
2022-11-22T12:10:48.957Z,13.68
2022-11-22T12:13:57.732Z,12.55
2022-11-22T12:16:43.168Z,12.98
2022-11-22T12:20:05.971Z,11.25
2022-11-22T12:22:50.988Z,11.65
2022-11-22T12:25:40.310Z,11.68
2022-11-22T12:28:18.012Z,14.05
2022-11-22T12:31:22.395Z,12.40
2022-11-22T12:34:34.360Z,13.70
2022-11-22T12:37:20.726Z,13.10
2022-11-22T12:39:51.772Z,12.75
2022-11-22T12:42:37.762Z,13.65
2022-11-22T12:45:30.191Z,12.13
2022-11-22T12:48:03.737Z,13.20
2022-11-22T12:51:01.097Z,14.60
2022-11-22T12:53:41.123Z,11.23
2022-11-22T12:56:26.154Z,12.00
2022-11-22T12:59:06.634Z,11.30
2022-11-22T13:01:52.714Z,11.65
2022-11-22T13:04:27.269Z,12.40
2022-11-22T13:07:11.835Z,12.73
2022-11-22T13:12:18.039Z,10.77
2022-11-22T13:14:55.850Z,11.65
2022-11-22T13:17:32.613Z,11.65
2022-11-22T13:20:07.879Z,13.43
2022-11-22T13:22:59.830Z,12.52
2022-11-22T13:26:00.567Z,12.30
2022-11-22T13:28:34.099Z,12.63
2022-11-22T13:31:11.601Z,9.68
2022-11-22T13:34:01.646Z,13.43
2022-11-22T13:36:31.151Z,13.10
2022-11-22T13:39:06.556Z,12.65
2022-11-22T13:42:06.443Z,14.32
2022-11-22T13:44:34.801Z,13.93
2022-11-22T13:47:34.823Z,13.93
2022-11-22T13:50:01.833Z,16.13
2022-11-22T13:52:52.723Z,13.98
2022-11-22T13:55:38.803Z,14.45
2022-11-22T13:58:30.050Z,14.85
2022-11-22T14:00:59.782Z,14.75
2022-11-22T14:03:41.379Z,14.85
2022-11-22T14:06:29.720Z,13.23
2022-11-22T14:10:10.652Z,13.35
2022-11-22T14:13:36.089Z,13.57
2022-11-22T14:16:54.012Z,14.35
2022-11-22T14:23:23.904Z,11.48
2022-11-22T14:26:05.137Z,12.10
2022-11-22T14:29:17.298Z,13.18
2022-11-22T14:31:56.892Z,13.40
2022-11-22T14:34:39.607Z,12.82
2022-11-22T14:37:23.393Z,12.95
2022-11-22T14:40:07.612Z,13.48
2022-11-22T14:42:37.523Z,12.25
2022-11-22T14:45:17.419Z,13.68
2022-11-22T14:48:38.947Z,13.68
2022-11-22T14:51:32.666Z,13.63
2022-11-22T14:54:51.914Z,13.73
2022-11-22T14:58:44.405Z,12.63
2022-11-22T15:02:17.895Z,12.32
2022-11-22T15:09:13.158Z,12.73
2022-11-22T15:09:13.454Z,12.50
2022-11-22T15:12:36.073Z,12.23
2022-11-22T16:57:15.462Z,14.02
2022-11-22T16:59:43.600Z,13.60
2022-11-22T17:02:17.211Z,15.23
2022-11-22T17:04:46.077Z,14.35
2022-11-22T17:07:47.967Z,15.50
2022-11-22T17:10:15.213Z,12.95
2022-11-22T17:12:47.286Z,14.77
2022-11-22T17:15:26.432Z,12.57
2022-11-22T17:17:53.547Z,15.38
2022-11-22T17:20:52.715Z,15.55
2022-11-22T17:23:32.439Z,16.33
2022-11-22T17:25:59.758Z,16.63
2022-11-22T17:28:34.169Z,17.27
2022-11-22T17:31:02.825Z,16.83
2022-11-22T17:33:29.697Z,16.10
2022-11-22T17:35:56.717Z,16.17
2022-11-22T17:38:23.609Z,16.42
2022-11-22T17:41:00.606Z,14.63
2022-11-22T17:43:32.929Z,14.77
2022-11-22T17:46:00.171Z,15.70
2022-11-22T17:48:27.179Z,14.23
2022-11-22T17:50:57.437Z,15.80
2022-11-22T17:53:26.789Z,16.05
2022-11-22T17:56:10.598Z,15.27
2022-11-22T17:59:48.934Z,14.00
2022-11-22T18:02:18.721Z,11.75
2022-11-22T18:05:09.901Z,12.93
2022-11-22T18:07:42.167Z,12.70
2022-11-22T18:10:28.273Z,16.25
2022-11-22T18:13:41.379Z,16.35
2022-11-22T18:16:31.725Z,22.40
2022-11-22T18:19:19.636Z,17.55
2022-11-22T18:21:58.485Z,14.05
2022-11-22T18:24:33.720Z,13.55
2022-11-22T18:27:04.240Z,12.25
2022-11-22T18:29:46.624Z,13.25
2022-11-22T18:32:50.097Z,12.63
2022-11-22T18:35:26.514Z,12.15
2022-11-22T18:37:58.766Z,14.40
2022-11-22T18:41:02.083Z,12.80
2022-11-22T18:44:57.663Z,13.65
2022-11-22T18:51:31.077Z,15.45
2022-11-22T18:54:22.888Z,13.63
2022-11-22T18:56:51.705Z,17.40
2022-11-22T18:59:20.449Z,15.57
2022-11-22T19:01:55.901Z,13.90
2022-11-22T19:04:22.903Z,15.57
2022-11-22T19:06:50.001Z,14.50
2022-11-22T19:09:17.157Z,12.82
2022-11-22T19:11:49.802Z,12.35
2022-11-22T19:14:22.382Z,14.55
2022-11-22T19:16:58.021Z,13.63
2022-11-22T19:19:32.295Z,12.70
2022-11-22T19:22:02.770Z,13.82
2022-11-22T19:24:30.686Z,12.75
2022-11-22T19:26:57.951Z,13.20
2022-11-22T19:29:33.832Z,13.07
2022-11-22T19:32:01.107Z,11.75
2022-11-22T19:34:31.698Z,11.23
2022-11-22T19:37:06.969Z,11.45
2022-11-22T19:39:36.574Z,11.07
2022-11-22T19:42:03.609Z,10.93
2022-11-22T19:44:35.734Z,11.30
2022-11-22T19:47:05.588Z,11.55
2022-11-22T19:49:32.661Z,12.57
2022-11-22T19:51:59.750Z,10.88
2022-11-22T19:54:35.225Z,10.38
2022-11-22T19:57:25.932Z,10.75
2022-11-22T19:59:57.198Z,9.93
2022-11-22T20:02:29.548Z,10.55
2022-11-22T20:04:58.506Z,9.38
2022-11-22T20:07:25.460Z,9.77
2022-11-22T20:09:52.667Z,9.35
2022-11-22T20:12:37.292Z,10.15
2022-11-22T20:15:04.658Z,10.32
2022-11-22T20:17:31.773Z,9.88
2022-11-22T20:20:12.358Z,10.63
2022-11-22T20:22:41.870Z,11.02
2022-11-22T20:25:33.124Z,9.88
2022-11-22T20:28:10.611Z,9.52
2022-11-22T20:30:40.869Z,9.70
2022-11-22T20:33:07.916Z,9.75
2022-11-22T20:35:34.756Z,10.27
2022-11-22T20:38:01.614Z,9.68
2022-11-22T20:40:28.560Z,9.23
2022-11-22T20:42:55.459Z,9.15
2022-11-22T20:45:22.652Z,10.90
2022-11-22T20:47:49.791Z,8.50
2022-11-22T20:50:17.285Z,10.90
2022-11-22T20:52:44.286Z,10.07
2022-11-22T20:55:20.293Z,9.90
2022-11-22T20:57:47.342Z,9.43
2022-11-22T21:00:15.291Z,9.60
2022-11-22T21:02:48.186Z,9.18
2022-11-22T21:05:23.710Z,9.70
2022-11-22T21:07:50.602Z,10.88
2022-11-22T21:10:31.410Z,12.77
2022-11-22T21:13:02.457Z,10.88
2022-11-22T21:15:32.832Z,10.50
2022-11-22T21:18:24.805Z,9.25
2022-11-22T21:20:52.563Z,8.48
2022-11-22T21:23:19.447Z,8.60
2022-11-22T21:25:46.745Z,9.68
2022-11-22T21:28:13.820Z,9.65
2022-11-22T21:30:47.860Z,8.95
2022-11-22T21:33:21.388Z,8.95
2022-11-22T21:38:38.368Z,8.55
2022-11-22T21:41:38.027Z,8.73
2022-11-22T21:43:56.669Z,8.93
2022-11-22T21:46:25.002Z,9.77
2022-11-22T21:48:52.176Z,8.38
2022-11-22T21:51:19.143Z,8.55
2022-11-22T21:53:48.921Z,8.70
2022-11-22T21:56:45.481Z,8.65
2022-11-22T21:59:12.598Z,8.23
2022-11-22T22:01:39.554Z,8.15
2022-11-22T22:04:06.421Z,7.68
2022-11-22T22:06:36.485Z,9.00
2022-11-22T22:09:07.963Z,7.50
2022-11-22T22:11:35.065Z,7.72
2022-11-22T22:14:02.230Z,7.43
2022-11-22T22:16:29.603Z,7.75
2022-11-22T22:18:56.618Z,7.40
2022-11-22T22:21:23.487Z,8.27
2022-11-22T22:23:50.469Z,6.68
2022-11-22T22:26:26.226Z,6.93
2022-11-22T22:28:56.080Z,6.88
2022-11-22T22:31:37.364Z,6.47
2022-11-22T22:34:04.357Z,6.50
2022-11-22T22:36:31.308Z,7.10
2022-11-22T22:38:58.189Z,5.75
2022-11-22T22:41:26.483Z,6.28
2022-11-22T22:57:24.788Z,5.50
2022-11-22T22:59:58.501Z,6.07
2022-11-22T23:02:31.026Z,6.78
2022-11-22T23:05:18.715Z,6.65
2022-11-22T23:07:56.457Z,6.45
2022-11-22T23:10:24.525Z,5.97
2022-11-22T23:12:52.006Z,5.88
2022-11-22T23:15:32.954Z,5.80
2022-11-22T23:18:05.558Z,5.65
2022-11-22T23:20:32.295Z,5.50
2022-11-22T23:22:59.051Z,4.78
2022-11-22T23:25:25.847Z,4.95
2022-11-22T23:27:52.634Z,5.35
2022-11-22T23:30:19.401Z,4.78
2022-11-22T23:32:46.169Z,4.85
2022-11-22T23:35:12.925Z,4.65
2022-11-22T23:37:39.697Z,5.07
2022-11-22T23:40:07.169Z,5.05
2022-11-22T23:42:33.925Z,4.47
2022-11-22T23:45:00.705Z,4.57
2022-11-22T23:47:27.485Z,4.85
2022-11-22T23:49:54.238Z,4.57
2022-11-22T23:52:21.023Z,4.78
2022-11-22T23:54:47.854Z,4.72
2022-11-22T23:57:14.633Z,4.72
2022-11-22T23:59:41.394Z,4.03
